createdAt,value
2022-08-29T00:01:40.697Z,66.48
2022-08-29T00:06:42.080Z,66.55
2022-08-29T00:11:46.392Z,66.87
2022-08-29T00:16:48.203Z,67.45
2022-08-29T00:21:50.659Z,68.59
2022-08-29T00:26:52.062Z,69.61
2022-08-29T00:31:53.559Z,70.51
2022-08-29T00:36:55.074Z,71.58
2022-08-29T00:41:56.619Z,72.71
2022-08-29T00:47:05.461Z,72.57
2022-08-29T00:52:13.938Z,71.71
2022-08-29T00:57:17.081Z,72.99
2022-08-29T01:02:19.319Z,74.08
2022-08-29T01:07:20.950Z,73.11
2022-08-29T01:12:22.535Z,74.52
2022-08-29T01:17:34.951Z,75.21
2022-08-29T01:22:59.827Z,75.59
2022-08-29T01:28:24.742Z,76.10
2022-08-29T01:33:31.091Z,76.28
2022-08-29T01:38:32.551Z,76.67
2022-08-29T01:43:43.354Z,77.32
2022-08-29T01:48:45.555Z,77.78
2022-08-29T01:53:47.232Z,77.56
2022-08-29T01:58:51.135Z,77.70
2022-08-29T02:03:52.645Z,77.74
2022-08-29T02:08:54.419Z,78.92
2022-08-29T02:13:58.101Z,79.87
2022-08-29T02:18:59.637Z,80.89
2022-08-29T02:24:21.370Z,81.29
2022-08-29T02:29:25.594Z,82.13
2022-08-29T02:34:27.029Z,81.92
2022-08-29T02:39:28.533Z,82.61
2022-08-29T02:44:31.405Z,82.94
2022-08-29T02:49:32.778Z,82.97
2022-08-29T02:54:35.976Z,83.83
2022-08-29T02:59:37.390Z,84.62
2022-08-29T03:04:39.000Z,84.96
2022-08-29T03:09:40.431Z,85.56
2022-08-29T03:14:41.977Z,86.45
2022-08-29T03:19:43.382Z,86.62
2022-08-29T03:24:44.953Z,87.27
2022-08-29T03:29:46.663Z,88.08
2022-08-29T03:34:48.360Z,88.51
2022-08-29T03:39:49.892Z,89.28
2022-08-29T03:44:51.321Z,89.12
2022-08-29T03:49:52.747Z,90.47
2022-08-29T03:54:54.223Z,91.30
2022-08-29T03:59:55.620Z,91.76
2022-08-29T04:04:57.149Z,91.18
2022-08-29T04:09:58.623Z,91.37
2022-08-29T04:15:00.025Z,91.30
2022-08-29T04:20:02.081Z,92.25
2022-08-29T04:25:05.983Z,93.18
2022-08-29T04:30:16.262Z,93.85
2022-08-29T04:35:17.970Z,92.58
2022-08-29T04:40:21.774Z,94.33
2022-08-29T04:45:23.741Z,94.31
2022-08-29T04:50:25.527Z,93.22
2022-08-29T04:55:26.985Z,93.02
2022-08-29T05:00:28.859Z,93.61
2022-08-29T05:05:31.945Z,91.40
2022-08-29T05:10:33.353Z,92.90
2022-08-29T05:15:34.781Z,93.21
2022-08-29T05:20:40.379Z,92.27
2022-08-29T05:25:42.748Z,93.17
2022-08-29T05:30:44.157Z,92.30
2022-08-29T05:35:45.716Z,91.49
2022-08-29T05:40:47.208Z,90.24
2022-08-29T05:45:48.625Z,89.62
2022-08-29T05:50:51.037Z,88.07
2022-08-29T05:55:53.392Z,88.69
2022-08-29T06:00:54.824Z,88.30
2022-08-29T06:05:56.380Z,86.98
2022-08-29T06:10:57.822Z,84.95
2022-08-29T06:15:59.679Z,82.61
2022-08-29T06:21:04.746Z,80.01
2022-08-29T06:26:08.062Z,78.31
2022-08-29T06:31:12.661Z,77.37
2022-08-29T06:36:15.050Z,77.01
2022-08-29T06:41:17.806Z,76.57
2022-08-29T06:46:26.821Z,76.17
2022-08-29T06:51:29.507Z,74.99
2022-08-29T06:56:31.280Z,75.03
2022-08-29T07:01:33.693Z,74.84
2022-08-29T07:06:37.593Z,73.65
2022-08-29T07:11:41.875Z,74.26
2022-08-29T07:16:43.460Z,72.41
2022-08-29T07:21:44.929Z,69.61
2022-08-29T07:26:46.401Z,68.12
2022-08-29T07:31:48.432Z,65.50
2022-08-29T07:36:49.855Z,63.84
2022-08-29T07:41:51.928Z,62.88
2022-08-29T07:46:57.507Z,63.22
2022-08-29T07:52:02.322Z,58.29
2022-08-29T08:02:25.640Z,55.14
2022-08-29T08:07:29.583Z,52.63
2022-08-29T08:12:31.175Z,51.89
2022-08-29T08:17:33.215Z,50.30
2022-08-29T08:22:35.572Z,50.22
2022-08-29T08:27:41.250Z,47.66
2022-08-29T08:32:47.380Z,46.81
2022-08-29T08:37:50.222Z,44.95
2022-08-29T08:42:52.990Z,44.85
2022-08-29T08:48:01.951Z,42.76
2022-08-29T08:53:17.297Z,42.57
2022-08-29T08:58:26.069Z,42.91
2022-08-29T09:04:11.019Z,41.70
2022-08-29T09:09:28.118Z,39.76
2022-08-29T09:14:51.105Z,39.11
2022-08-29T09:19:54.937Z,37.60
2022-08-29T09:25:01.581Z,38.18
2022-08-29T09:30:14.976Z,37.52
2022-08-29T09:35:36.776Z,36.94
2022-08-29T09:40:50.358Z,35.81
2022-08-29T09:46:10.760Z,35.67
2022-08-29T09:51:32.960Z,36.11
2022-08-29T09:56:37.167Z,35.97
2022-08-29T10:01:38.711Z,34.45
2022-08-29T10:06:45.119Z,33.14
2022-08-29T10:12:07.920Z,32.40
2022-08-29T10:17:47.157Z,31.73
2022-08-29T10:22:55.499Z,31.47
2022-08-29T10:28:12.727Z,30.23
2022-08-29T10:45:44.968Z,29.49
2022-08-29T10:51:22.564Z,28.24
2022-08-29T10:56:40.389Z,26.11
2022-08-29T11:02:16.906Z,25.42
2022-08-29T11:08:00.722Z,27.59
2022-08-29T11:14:05.370Z,26.03
2022-08-29T11:19:20.157Z,24.05
2022-08-29T11:24:31.712Z,22.84
2022-08-29T11:29:47.675Z,24.19
2022-08-29T11:35:29.999Z,24.63
2022-08-29T11:46:37.583Z,27.88
2022-08-29T11:51:41.164Z,26.25
2022-08-29T11:56:42.918Z,23.37
2022-08-29T12:01:55.913Z,22.42
2022-08-29T12:07:01.470Z,22.16
2022-08-29T12:12:04.409Z,20.78
2022-08-29T12:17:16.611Z,21.24
2022-08-29T12:23:02.773Z,21.27
2022-08-29T12:40:01.642Z,21.51
2022-08-29T12:51:00.951Z,19.30
2022-08-29T13:02:18.592Z,20.54
2022-08-29T13:13:21.839Z,19.80
2022-08-29T13:18:23.910Z,19.92
2022-08-29T13:24:08.887Z,18.46
2022-08-29T13:29:27.428Z,19.33
2022-08-29T13:34:44.781Z,20.79
2022-08-29T13:39:56.200Z,23.05
2022-08-29T13:45:22.265Z,24.78
2022-08-29T13:50:27.525Z,25.68
2022-08-29T13:55:29.257Z,26.60
2022-08-29T14:00:35.106Z,27.77
2022-08-29T14:05:37.837Z,26.91
2022-08-29T14:10:39.700Z,27.95
2022-08-29T14:15:41.862Z,29.13
2022-08-29T14:20:48.839Z,28.85
2022-08-29T14:25:52.134Z,29.17
2022-08-29T14:30:59.645Z,28.54
2022-08-29T14:36:07.590Z,29.62
2022-08-29T14:41:09.179Z,30.64
2022-08-29T14:47:29.444Z,29.69
2022-08-29T14:51:49.137Z,31.16
2022-08-29T14:57:06.570Z,29.93
2022-08-29T15:02:09.015Z,29.35
2022-08-29T15:07:14.209Z,29.83
2022-08-29T15:12:22.168Z,30.63
2022-08-29T15:18:47.958Z,30.50
2022-08-29T15:23:41.448Z,31.20
2022-08-29T15:28:42.920Z,32.32
2022-08-29T15:33:44.493Z,31.49
2022-08-29T15:38:57.825Z,33.61
2022-08-29T15:44:06.761Z,32.10
2022-08-29T15:49:28.839Z,32.29
2022-08-29T15:54:37.669Z,32.13
2022-08-29T16:11:15.249Z,33.73
2022-08-29T16:16:17.182Z,33.19
2022-08-29T16:21:27.773Z,33.74
2022-08-29T16:26:30.653Z,32.51
2022-08-29T16:31:32.610Z,33.58
2022-08-29T16:36:34.124Z,33.40
2022-08-29T16:41:35.581Z,34.65
2022-08-29T16:46:37.106Z,34.54
2022-08-29T16:51:39.329Z,35.11
2022-08-29T16:56:40.871Z,34.08
2022-08-29T17:01:45.839Z,34.74
2022-08-29T17:06:47.969Z,34.83
2022-08-29T17:11:50.690Z,35.41
2022-08-29T17:16:55.724Z,35.71
2022-08-29T17:21:57.244Z,35.93
2022-08-29T17:27:01.593Z,36.52
2022-08-29T17:32:04.508Z,37.84
2022-08-29T17:37:06.778Z,37.38
2022-08-29T17:42:08.255Z,37.92
2022-08-29T17:47:09.670Z,38.67
2022-08-29T17:52:11.553Z,38.80
2022-08-29T17:57:13.295Z,39.55
2022-08-29T18:02:14.798Z,39.65
2022-08-29T18:07:16.210Z,40.76
2022-08-29T18:12:17.907Z,41.08
2022-08-29T18:17:19.429Z,40.78
2022-08-29T18:22:20.928Z,39.93
2022-08-29T18:27:22.558Z,41.58
2022-08-29T18:32:24.092Z,42.17
2022-08-29T18:37:25.579Z,42.59
2022-08-29T18:42:39.945Z,42.83
2022-08-29T18:47:42.626Z,43.54
2022-08-29T18:52:44.481Z,44.20
2022-08-29T18:57:46.087Z,43.80
2022-08-29T19:02:47.669Z,45.49
2022-08-29T19:07:49.336Z,44.56
2022-08-29T19:12:50.916Z,45.59
2022-08-29T19:17:53.144Z,45.83
2022-08-29T19:22:54.910Z,46.59
2022-08-29T19:27:56.965Z,46.35
2022-08-29T19:33:01.758Z,46.95
2022-08-29T19:38:04.319Z,46.77
2022-08-29T19:43:13.427Z,47.30
2022-08-29T19:48:16.159Z,47.76
2022-08-29T19:53:24.661Z,48.33
2022-08-29T20:03:46.819Z,49.76
2022-08-29T20:08:48.693Z,49.92
2022-08-29T20:13:52.758Z,50.08
2022-08-29T20:18:55.816Z,51.60
2022-08-29T20:23:58.428Z,50.77
2022-08-29T20:29:02.451Z,51.95
2022-08-29T20:34:04.504Z,53.14
2022-08-29T20:39:08.625Z,52.23
2022-08-29T20:44:10.187Z,53.74
2022-08-29T20:49:14.298Z,54.50
2022-08-29T20:54:18.904Z,54.29
2022-08-29T20:59:24.644Z,54.33
2022-08-29T21:04:27.717Z,55.15
2022-08-29T21:09:29.594Z,55.90
2022-08-29T21:14:31.053Z,56.73
2022-08-29T21:19:32.928Z,57.46
2022-08-29T21:24:37.535Z,57.60
2022-08-29T21:29:39.183Z,56.78
2022-08-29T21:34:41.146Z,57.40
2022-08-29T21:39:42.667Z,57.11
2022-08-29T21:44:44.218Z,57.93
2022-08-29T21:49:45.871Z,58.63
2022-08-29T21:54:47.422Z,58.18
2022-08-29T21:59:48.946Z,57.85
2022-08-29T22:04:50.350Z,58.67
2022-08-29T22:09:51.945Z,59.74
2022-08-29T22:14:53.518Z,60.44
2022-08-29T22:19:54.976Z,60.65
2022-08-29T22:24:56.472Z,58.85
2022-08-29T22:29:58.011Z,59.77
2022-08-29T22:34:59.482Z,60.67
2022-08-29T22:40:01.062Z,61.21
2022-08-29T22:45:04.212Z,61.57
2022-08-29T22:50:09.326Z,62.83
2022-08-29T22:55:14.123Z,62.01
2022-08-29T23:00:21.485Z,61.91
2022-08-29T23:05:23.047Z,63.59
2022-08-29T23:10:24.647Z,62.67
2022-08-29T23:15:26.351Z,62.01
2022-08-29T23:20:29.256Z,62.57
2022-08-29T23:25:31.126Z,63.55
2022-08-29T23:30:32.737Z,63.48
2022-08-29T23:35:34.141Z,64.22
2022-08-29T23:40:36.843Z,64.40
2022-08-29T23:45:38.876Z,63.66
2022-08-29T23:50:40.767Z,63.87
2022-08-29T23:55:46.702Z,64.98
